Time;durP1;ratioP1;P1;durP2;ratioP2;P2;SDS_P1;SDS_P2;PMS_P1;PMS_P2;Temp;Humidity;BMP_temperature;BMP_pressure;BME280_temperature;BME280_humidity;BME280_pressure;Samples;Min_cycle;Max_cycle;Signal;HPM_P1;HPM_P2
2022/10/27 00:01:56;;;;;;;4.13;2.88;;;14.80;87.10;;;;;;4897092;29;20064;-29
2022/10/27 00:04:21;;;;;;;4.85;2.80;;;14.80;87.00;;;;;;4896947;29;20036;-28
2022/10/27 00:06:47;;;;;;;6.93;3.22;;;14.80;87.00;;;;;;4896880;29;20024;-29
2022/10/27 00:09:12;;;;;;;10.35;3.08;;;14.90;87.00;;;;;;4896910;29;20032;-30
2022/10/27 00:11:38;;;;;;;7.40;3.33;;;14.90;86.90;;;;;;4896800;29;20025;-35
2022/10/27 00:14:04;;;;;;;4.15;2.72;;;14.90;86.80;;;;;;4879858;29;20080;-30
2022/10/27 00:16:29;;;;;;;5.35;2.83;;;15.00;86.80;;;;;;4896812;29;20033;-29
2022/10/27 00:18:55;;;;;;;8.85;3.05;;;15.00;86.80;;;;;;4896824;29;20063;-32
2022/10/27 00:21:21;;;;;;;6.05;2.97;;;15.00;86.80;;;;;;4896823;29;20036;-29
2022/10/27 00:23:50;;;;;;;4.85;3.08;;;14.90;86.80;;;;;;4879747;29;20025;-30
2022/10/27 00:26:18;;;;;;;5.30;3.20;;;14.90;86.90;;;;;;4896800;29;20032;-31
2022/10/27 00:28:44;;;;;;;5.45;3.20;;;14.90;86.90;;;;;;4896546;29;20465;-43
2022/10/27 00:31:11;;;;;;;5.20;3.97;;;14.90;87.00;;;;;;4896608;29;20084;-33
2022/10/27 00:33:37;;;;;;;6.60;3.38;;;14.80;86.90;;;;;;4879853;29;20036;-33
2022/10/27 00:36:08;;;;;;;4.90;3.00;;;14.80;87.00;;;;;;4896771;29;20024;-35
2022/10/27 00:38:34;;;;;;;6.63;3.72;;;14.80;87.00;;;;;;4896670;29;20027;-33
2022/10/27 00:41:00;;;;;;;6.20;3.30;;;14.80;87.10;;;;;;4897005;29;20111;-33
2022/10/27 00:43:29;;;;;;;5.47;2.78;;;14.70;87.10;;;;;;4896790;29;20059;-33
2022/10/27 00:46:00;;;;;;;4.88;2.78;;;14.70;87.20;;;;;;4896770;29;20033;-35
2022/10/27 00:48:27;;;;;;;4.65;3.13;;;14.70;87.30;;;;;;4896815;29;20036;-33
2022/10/27 00:50:52;;;;;;;4.32;3.10;;;14.60;87.30;;;;;;4896739;29;20128;-34
2022/10/27 00:53:19;;;;;;;4.13;3.10;;;14.60;87.40;;;;;;4896591;29;20056;-31
2022/10/27 00:55:45;;;;;;;4.57;2.90;;;14.50;87.40;;;;;;4896745;29;20024;-29
2022/10/27 00:58:16;;;;;;;6.10;2.70;;;14.50;87.40;;;;;;4879586;29;20468;-31
2022/10/27 01:00:42;;;;;;;4.63;3.08;;;14.50;87.50;;;;;;4897115;29;20049;-28
2022/10/27 01:03:10;;;;;;;4.97;3.70;;;14.50;87.60;;;;;;4900203;29;20028;-29
2022/10/27 01:05:36;;;;;;;5.88;3.05;;;14.40;87.60;;;;;;4900103;29;20503;-30
2022/10/27 01:08:06;;;;;;;5.45;2.88;;;14.40;87.70;;;;;;4899863;29;20033;-41
2022/10/27 01:10:32;;;;;;;3.90;2.75;;;14.40;87.70;;;;;;4899800;29;20044;-43
2022/10/27 01:12:59;;;;;;;5.10;2.88;;;14.40;87.80;;;;;;4900239;29;20186;-41
2022/10/27 01:15:43;;;;;;;5.22;3.10;;;14.40;87.80;;;;;;4899957;29;20025;-43
2022/10/27 01:18:39;;;;;;;6.25;2.75;;;14.40;87.80;;;;;;4899695;29;20020;-41
2022/10/27 01:21:34;;;;;;;6.80;3.20;;;14.40;87.90;;;;;;4899743;29;20036;-35
2022/10/27 01:24:08;;;;;;;4.95;2.80;;;14.30;87.80;;;;;;4884776;29;20088;-33
2022/10/27 01:26:46;;;;;;;4.57;2.83;;;14.30;87.90;;;;;;4899436;29;20029;-35
2022/10/27 01:29:29;;;;;;;4.10;2.80;;;14.30;87.90;;;;;;4899562;29;20388;-33
2022/10/27 01:32:07;;;;;;;4.05;2.85;;;14.20;87.90;;;;;;4899610;29;20445;-33
2022/10/27 01:34:59;;;;;;;5.93;3.20;;;14.30;88.00;;;;;;4899529;29;20021;-34
2022/10/27 01:37:49;;;;;;;6.65;2.90;;;14.20;88.00;;;;;;4899758;29;20031;-43
2022/10/27 01:40:25;;;;;;;5.50;3.30;;;14.20;88.00;;;;;;4899507;29;20480;-33
2022/10/27 01:43:03;;;;;;;6.78;3.60;;;14.20;88.00;;;;;;4899558;29;20040;-33
2022/10/27 01:45:34;;;;;;;5.32;3.10;;;14.20;88.10;;;;;;4899367;29;20040;-34
2022/10/27 01:48:00;;;;;;;8.10;3.35;;;14.20;88.70;;;;;;4899439;29;20036;-34
2022/10/27 01:50:31;;;;;;;5.32;3.70;;;14.20;88.10;;;;;;4899353;29;20037;-33
2022/10/27 01:52:56;;;;;;;6.47;3.70;;;14.20;88.20;;;;;;4899270;29;20031;-35
2022/10/27 01:55:25;;;;;;;6.80;3.63;;;14.20;88.20;;;;;;4899251;29;20021;-34
2022/10/27 01:58:04;;;;;;;5.93;3.20;;;14.20;88.30;;;;;;4899194;29;20124;-33
2022/10/27 02:00:39;;;;;;;5.85;3.40;;;14.20;88.30;;;;;;4898938;29;20075;-35
2022/10/27 02:03:13;;;;;;;5.22;3.60;;;14.20;88.30;;;;;;4899166;29;20473;-35
2022/10/27 02:05:51;;;;;;;7.28;3.40;;;14.20;88.30;;;;;;4899046;29;20143;-35
2022/10/27 02:08:19;;;;;;;4.60;3.22;;;14.20;88.40;;;;;;4899197;29;20088;-35
2022/10/27 02:10:58;;;;;;;5.00;3.70;;;14.20;88.40;;;;;;4899286;29;20041;-35
2022/10/27 02:13:24;;;;;;;3.85;3.30;;;14.20;88.50;;;;;;4898810;29;20044;-33
2022/10/27 02:15:56;;;;;;;6.03;3.55;;;14.20;88.40;;;;;;4898881;29;20024;-33
2022/10/27 02:18:34;;;;;;;5.40;3.20;;;14.30;88.50;;;;;;4898869;29;20025;-34
2022/10/27 02:21:04;;;;;;;4.60;3.35;;;14.20;88.50;;;;;;4898930;29;20179;-33
2022/10/27 02:23:30;;;;;;;6.32;3.70;;;14.30;88.50;;;;;;4898672;29;20359;-34
2022/10/27 02:25:57;;;;;;;4.65;3.15;;;14.30;88.50;;;;;;4898846;29;20040;-32
2022/10/27 02:28:39;;;;;;;4.63;3.20;;;14.30;88.50;;;;;;4898696;29;20099;-33
2022/10/27 02:31:06;;;;;;;7.45;3.42;;;14.30;88.50;;;;;;4881531;29;20401;-34
2022/10/27 02:33:32;;;;;;;4.30;3.08;;;14.30;88.50;;;;;;4898393;29;20056;-34
2022/10/27 02:35:58;;;;;;;5.25;3.30;;;14.40;88.50;;;;;;4898508;29;20063;-34
2022/10/27 02:38:23;;;;;;;5.03;3.25;;;14.40;88.50;;;;;;4881434;29;20024;-34
2022/10/27 02:40:49;;;;;;;6.60;3.38;;;14.40;88.50;;;;;;4898391;29;20071;-34
2022/10/27 02:43:15;;;;;;;5.75;3.67;;;14.40;88.50;;;;;;4898371;29;20139;-34
2022/10/27 02:45:40;;;;;;;6.13;3.30;;;14.40;88.50;;;;;;4898357;29;20271;-34
2022/10/27 02:48:06;;;;;;;4.30;3.30;;;14.40;88.60;;;;;;4898138;29;20380;-33
2022/10/27 02:50:31;;;;;;;5.30;3.45;;;14.40;88.60;;;;;;4898045;29;20039;-33
2022/10/27 02:52:57;;;;;;;5.82;3.50;;;14.30;88.60;;;;;;4897945;29;20021;-32
2022/10/27 02:55:23;;;;;;;9.18;4.47;;;14.40;88.60;;;;;;4897970;29;20031;-33
2022/10/27 02:57:48;;;;;;;5.68;3.30;;;14.40;88.70;;;;;;4898105;29;20100;-33
2022/10/27 03:00:14;;;;;;;6.15;3.60;;;14.40;88.70;;;;;;4897688;29;20052;-38
2022/10/27 03:02:40;;;;;;;6.45;3.70;;;14.30;88.60;;;;;;4897981;29;20047;-33
2022/10/27 03:05:06;;;;;;;4.47;3.35;;;14.30;88.60;;;;;;4897881;29;20376;-34
2022/10/27 03:07:31;;;;;;;5.63;3.38;;;14.30;88.60;;;;;;4897601;29;20040;-33
2022/10/27 03:09:57;;;;;;;6.57;3.42;;;14.30;88.70;;;;;;4897787;29;20526;-33
2022/10/27 03:12:22;;;;;;;4.05;3.53;;;14.30;88.70;;;;;;4897717;29;20037;-34
2022/10/27 03:14:48;;;;;;;6.25;3.80;;;14.30;88.70;;;;;;4897900;29;20029;-33
2022/10/27 03:17:13;;;;;;;5.18;3.47;;;14.30;88.70;;;;;;4897860;29;20028;-34
2022/10/27 03:19:39;;;;;;;7.20;3.75;;;14.20;88.70;;;;;;4897702;29;20048;-33
2022/10/27 03:22:05;;;;;;;7.63;3.50;;;14.30;88.80;;;;;;4897453;29;20028;-34
2022/10/27 03:24:30;;;;;;;4.70;3.70;;;14.20;88.80;;;;;;4896709;29;20033;-33
2022/10/27 03:26:56;;;;;;;6.25;3.90;;;14.20;88.80;;;;;;4897739;29;20456;-35
2022/10/27 03:29:22;;;;;;;7.60;3.88;;;14.20;88.80;;;;;;4897467;29;20036;-31
2022/10/27 03:31:48;;;;;;;6.30;3.83;;;14.20;88.80;;;;;;4897620;29;20481;-30
2022/10/27 03:34:13;;;;;;;5.70;3.33;;;14.20;88.90;;;;;;4897245;29;20028;-27
2022/10/27 03:36:39;;;;;;;5.80;4.03;;;14.20;88.90;;;;;;4897478;29;20032;-42
2022/10/27 03:39:04;;;;;;;8.98;3.85;;;14.10;88.90;;;;;;4897460;29;20137;-32
2022/10/27 03:41:30;;;;;;;5.85;3.70;;;14.20;89.00;;;;;;4897346;29;20063;-29
2022/10/27 03:43:56;;;;;;;6.20;4.00;;;14.10;88.90;;;;;;4897442;29;20047;-27
2022/10/27 03:46:21;;;;;;;7.68;4.22;;;14.10;89.00;;;;;;4897248;29;20449;-26
2022/10/27 03:48:47;;;;;;;7.57;4.53;;;14.10;89.00;;;;;;4897333;29;20108;-27
2022/10/27 03:51:12;;;;;;;5.45;3.83;;;14.10;89.30;;;;;;4896930;29;20093;-29
2022/10/27 03:53:38;;;;;;;5.78;3.70;;;14.10;89.10;;;;;;4897052;29;20710;-30
2022/10/27 03:56:03;;;;;;;7.38;4.22;;;14.10;89.10;;;;;;4897053;29;20027;-29
2022/10/27 03:58:29;;;;;;;5.50;3.92;;;14.10;89.10;;;;;;4896901;29;20112;-30
2022/10/27 04:01:03;;;;;;;5.53;4.20;;;14.10;89.10;;;;;;4896775;29;20076;-32
2022/10/27 04:03:28;;;;;;;5.88;3.97;;;14.10;89.20;;;;;;4896977;29;20040;-30
2022/10/27 04:05:54;;;;;;;7.40;4.03;;;14.00;89.10;;;;;;4896888;29;20393;-34
2022/10/27 04:08:20;;;;;;;7.40;3.95;;;14.10;89.20;;;;;;4896851;29;20041;-32
2022/10/27 04:10:45;;;;;;;7.15;3.72;;;14.10;89.30;;;;;;4896705;29;20472;-35
2022/10/27 04:13:11;;;;;;;7.63;4.00;;;14.00;89.20;;;;;;4896722;29;20039;-31
2022/10/27 04:15:37;;;;;;;6.15;3.92;;;14.00;89.80;;;;;;4896749;29;20033;-32
2022/10/27 04:18:02;;;;;;;4.28;3.20;;;14.00;89.20;;;;;;4896712;29;20036;-37
2022/10/27 04:20:28;;;;;;;5.43;3.75;;;14.00;89.20;;;;;;4897039;29;20040;-34
2022/10/27 04:22:55;;;;;;;6.68;3.60;;;14.00;89.20;;;;;;4896932;29;20511;-33
2022/10/27 04:25:22;;;;;;;5.47;3.80;;;14.00;89.30;;;;;;4896852;29;20040;-33
2022/10/27 04:27:47;;;;;;;6.22;3.72;;;13.90;89.30;;;;;;4879952;29;20040;-33
2022/10/27 04:30:13;;;;;;;7.68;3.90;;;14.00;89.30;;;;;;4896666;29;20033;-32
2022/10/27 04:32:38;;;;;;;5.38;3.75;;;13.90;89.30;;;;;;4896896;29;20031;-33
2022/10/27 04:35:07;;;;;;;6.95;3.83;;;13.90;89.30;;;;;;4898157;29;20486;-31
2022/10/27 04:37:33;;;;;;;7.18;3.90;;;13.90;89.30;;;;;;4900668;29;20096;-33
2022/10/27 04:39:59;;;;;;;6.63;3.80;;;13.90;89.40;;;;;;4900856;29;20033;-31
2022/10/27 04:42:25;;;;;;;5.65;4.20;;;13.90;89.40;;;;;;4900411;29;20160;-31
2022/10/27 04:44:50;;;;;;;7.43;4.30;;;13.90;89.40;;;;;;4900334;29;20150;-30
2022/10/27 04:47:16;;;;;;;8.98;5.30;;;13.90;89.40;;;;;;4900413;29;20037;-28
2022/10/27 04:49:41;;;;;;;8.75;5.90;;;13.90;89.50;;;;;;4900209;29;20028;-29
2022/10/27 04:52:07;;;;;;;8.50;7.70;;;14.00;89.60;;;;;;4900261;29;20033;-29
2022/10/27 04:54:33;;;;;;;6.13;4.78;;;13.90;89.50;;;;;;4900379;29;20029;-30
2022/10/27 04:56:58;;;;;;;6.05;4.20;;;13.90;89.60;;;;;;4900182;29;20032;-30
2022/10/27 04:59:24;;;;;;;7.22;4.13;;;13.90;89.60;;;;;;4899845;29;20029;-44
2022/10/27 05:01:49;;;;;;;6.75;3.95;;;13.90;89.60;;;;;;4900035;29;20083;-40
2022/10/27 05:04:15;;;;;;;5.28;3.92;;;13.90;89.60;;;;;;4900027;29;20170;-43
2022/10/27 05:06:40;;;;;;;8.27;4.97;;;13.90;89.60;;;;;;4900143;29;20028;-30
2022/10/27 05:09:06;;;;;;;5.93;4.78;;;13.90;89.70;;;;;;4900169;29;20028;-30
2022/10/27 05:11:32;;;;;;;7.90;5.82;;;13.90;89.70;;;;;;4899723;29;20051;-29
2022/10/27 05:13:57;;;;;;;8.15;6.80;;;13.80;89.70;;;;;;4900039;29;20161;-29
2022/10/27 05:16:23;;;;;;;6.70;4.75;;;13.80;89.70;;;;;;4900077;29;20032;-31
2022/10/27 05:18:48;;;;;;;5.70;3.97;;;13.80;89.70;;;;;;4899791;29;20028;-44
2022/10/27 05:21:14;;;;;;;5.60;3.97;;;13.80;89.70;;;;;;4899717;29;20111;-42
2022/10/27 05:23:39;;;;;;;6.85;5.03;;;13.80;89.80;;;;;;4899926;29;20439;-42
2022/10/27 05:26:05;;;;;;;4.72;3.88;;;13.80;89.80;;;;;;4899822;29;20039;-42
2022/10/27 05:28:30;;;;;;;5.13;3.90;;;13.80;89.80;;;;;;4899762;29;20036;-38
2022/10/27 05:30:57;;;;;;;6.07;3.83;;;13.80;89.90;;;;;;4899556;29;20456;-35
2022/10/27 05:33:23;;;;;;;6.05;4.03;;;13.70;89.80;;;;;;4899518;29;20043;-34
2022/10/27 05:35:49;;;;;;;5.82;3.72;;;13.70;89.80;;;;;;4899548;29;20532;-35
2022/10/27 05:38:15;;;;;;;6.80;3.55;;;13.70;89.80;;;;;;4899357;29;20052;-35
2022/10/27 05:40:41;;;;;;;5.55;3.60;;;13.70;89.80;;;;;;4899334;29;20028;-34
2022/10/27 05:43:08;;;;;;;4.45;3.50;;;13.70;89.80;;;;;;4899290;29;20417;-35
2022/10/27 05:45:34;;;;;;;6.47;3.72;;;13.60;89.80;;;;;;4899096;29;20112;-34
2022/10/27 05:48:02;;;;;;;6.32;3.70;;;13.60;89.80;;;;;;4898501;29;20037;-34
2022/10/27 05:50:28;;;;;;;5.70;3.92;;;13.60;89.90;;;;;;4899187;29;20416;-34
2022/10/27 05:52:54;;;;;;;8.32;3.83;;;13.60;89.90;;;;;;4898997;29;20033;-34
2022/10/27 05:55:20;;;;;;;5.75;3.85;;;13.60;89.90;;;;;;4899011;29;20032;-34
2022/10/27 05:57:53;;;;;;;6.28;3.50;;;13.60;89.80;;;;;;4899098;29;20052;-34
2022/10/27 06:00:19;;;;;;;7.32;3.63;;;13.60;89.90;;;;;;4898892;29;20048;-34
2022/10/27 06:02:44;;;;;;;7.38;3.92;;;13.60;89.80;;;;;;4882180;29;20127;-34
2022/10/27 06:05:10;;;;;;;8.18;4.10;;;13.50;89.80;;;;;;4899122;29;20025;-33
2022/10/27 06:07:35;;;;;;;8.20;4.25;;;13.50;89.80;;;;;;4899241;29;20108;-35
2022/10/27 06:10:01;;;;;;;6.88;3.85;;;13.50;89.80;;;;;;4898965;29;20033;-34
2022/10/27 06:12:26;;;;;;;5.93;3.80;;;13.50;89.90;;;;;;4898727;29;20040;-35
2022/10/27 06:14:52;;;;;;;6.55;4.18;;;13.50;89.90;;;;;;4898639;29;20084;-32
2022/10/27 06:17:18;;;;;;;6.80;4.10;;;13.50;89.90;;;;;;4898757;29;20027;-36
2022/10/27 06:19:43;;;;;;;6.35;4.10;;;13.50;89.90;;;;;;4898669;29;20461;-41
2022/10/27 06:22:09;;;;;;;8.32;4.50;;;13.50;89.90;;;;;;4898686;29;20518;-35
2022/10/27 06:24:34;;;;;;;6.03;4.15;;;13.50;89.90;;;;;;4898571;29;20029;-40
2022/10/27 06:27:00;;;;;;;6.05;4.00;;;13.50;89.90;;;;;;4898519;29;20028;-35
2022/10/27 06:29:25;;;;;;;7.13;4.30;;;13.50;89.90;;;;;;4898481;29;20032;-35
2022/10/27 06:31:52;;;;;;;9.23;4.22;;;13.50;89.90;;;;;;4898516;29;20067;-34
2022/10/27 06:34:17;;;;;;;7.88;4.45;;;13.50;89.90;;;;;;4898530;29;20024;-35
2022/10/27 06:36:43;;;;;;;5.20;3.85;;;13.50;89.90;;;;;;4898536;29;20496;-34
2022/10/27 06:39:08;;;;;;;5.85;4.40;;;13.50;89.80;;;;;;4898560;29;20556;-34
2022/10/27 06:41:34;;;;;;;6.90;4.47;;;13.60;89.90;;;;;;4898503;29;20033;-34
2022/10/27 06:44:00;;;;;;;4.57;3.75;;;13.60;89.90;;;;;;4898640;29;20033;-34
2022/10/27 06:46:25;;;;;;;5.97;4.22;;;13.60;89.90;;;;;;4898468;29;20484;-35
2022/10/27 06:48:51;;;;;;;5.30;4.25;;;13.60;89.80;;;;;;4898285;29;20033;-34
2022/10/27 06:51:16;;;;;;;5.80;4.05;;;13.60;89.80;;;;;;4898099;29;20583;-34
2022/10/27 06:53:42;;;;;;;6.65;4.22;;;13.60;90.10;;;;;;4898326;29;20035;-33
2022/10/27 06:56:07;;;;;;;5.85;4.07;;;13.60;89.80;;;;;;4898294;29;20080;-35
2022/10/27 06:58:38;;;;;;;7.35;4.05;;;13.60;89.70;;;;;;4898081;29;20027;-35
2022/10/27 07:01:04;;;;;;;8.43;4.82;;;13.60;89.70;;;;;;4898126;29;20052;-34
2022/10/27 07:03:33;;;;;;;7.47;4.32;;;13.70;89.70;;;;;;4898188;29;20024;-34
2022/10/27 07:05:59;;;;;;;5.10;3.97;;;13.70;89.70;;;;;;4898243;29;20056;-33
2022/10/27 07:08:24;;;;;;;7.78;3.92;;;13.70;89.60;;;;;;4897888;29;20032;-34
2022/10/27 07:10:51;;;;;;;7.28;4.05;;;13.70;90.10;;;;;;4897716;29;20124;-39
2022/10/27 07:13:16;;;;;;;9.05;4.13;;;13.70;89.60;;;;;;4897744;29;20024;-35
2022/10/27 07:15:42;;;;;;;6.03;3.72;;;13.80;89.60;;;;;;4897832;29;20495;-34
2022/10/27 07:18:10;;;;;;;5.20;4.00;;;13.80;89.60;;;;;;4897890;29;20088;-34
2022/10/27 07:20:38;;;;;;;7.57;3.88;;;13.80;89.50;;;;;;4897699;29;20517;-35
2022/10/27 07:23:05;;;;;;;7.28;3.85;;;13.90;89.50;;;;;;4897656;29;20033;-33
2022/10/27 07:25:32;;;;;;;7.10;3.58;;;13.90;89.50;;;;;;4897590;29;20492;-34
2022/10/27 07:27:58;;;;;;;7.55;3.55;;;14.00;89.40;;;;;;4897428;29;20095;-34
2022/10/27 07:30:29;;;;;;;6.45;4.10;;;14.00;89.40;;;;;;4897270;29;20035;-35
2022/10/27 07:32:56;;;;;;;8.90;4.05;;;14.00;89.30;;;;;;4897687;29;20384;-34
2022/10/27 07:35:22;;;;;;;7.00;4.28;;;14.00;89.30;;;;;;4880806;29;20099;-34
2022/10/27 07:37:48;;;;;;;6.70;3.72;;;14.10;89.30;;;;;;4897580;29;20029;-35
2022/10/27 07:40:15;;;;;;;4.65;3.50;;;14.10;89.10;;;;;;4897554;29;20043;-34
2022/10/27 07:42:45;;;;;;;5.25;3.72;;;14.20;89.10;;;;;;4897553;29;20492;-37
2022/10/27 07:45:12;;;;;;;5.70;3.97;;;14.20;89.00;;;;;;4897323;29;20127;-41
2022/10/27 07:47:45;;;;;;;7.63;3.75;;;14.30;89.00;;;;;;4897298;29;20039;-35
2022/10/27 07:50:11;;;;;;;6.38;3.60;;;14.30;88.90;;;;;;4897308;29;20358;-33
2022/10/27 07:52:44;;;;;;;4.72;3.50;;;14.30;88.90;;;;;;4897174;29;20116;-35
2022/10/27 07:55:11;;;;;;;5.88;3.13;;;14.30;88.80;;;;;;4897109;29;20044;-32
2022/10/27 07:57:37;;;;;;;6.97;3.50;;;14.40;88.80;;;;;;4897184;29;20020;-34
2022/10/27 08:00:04;;;;;;;8.00;3.58;;;14.40;88.80;;;;;;4897005;29;20135;-33
2022/10/27 08:02:30;;;;;;;5.57;3.55;;;14.40;88.70;;;;;;4897150;29;20029;-34
2022/10/27 08:04:56;;;;;;;7.22;3.55;;;14.40;88.70;;;;;;4896896;29;20107;-34
2022/10/27 08:07:22;;;;;;;4.78;3.53;;;14.50;88.70;;;;;;4896953;29;20496;-34
2022/10/27 08:09:48;;;;;;;6.78;3.40;;;14.50;88.70;;;;;;4896558;29;20048;-35
2022/10/27 08:12:14;;;;;;;5.93;3.08;;;14.60;88.70;;;;;;4897131;29;20092;-34
2022/10/27 08:14:39;;;;;;;4.97;3.40;;;14.60;88.70;;;;;;4880170;29;20028;-34
2022/10/27 08:17:05;;;;;;;4.28;3.42;;;14.60;88.50;;;;;;4897075;29;20039;-34
2022/10/27 08:19:30;;;;;;;5.72;3.55;;;14.60;88.50;;;;;;4897018;29;20061;-34
2022/10/27 08:21:56;;;;;;;8.20;3.30;;;14.70;88.50;;;;;;4896946;29;20029;-34
2022/10/27 08:24:22;;;;;;;5.10;3.13;;;14.70;88.40;;;;;;4896884;29;20032;-34
2022/10/27 08:26:47;;;;;;;8.65;3.35;;;14.80;88.40;;;;;;4896961;29;20400;-36
2022/10/27 08:29:13;;;;;;;7.85;3.60;;;14.80;88.30;;;;;;4897076;29;20566;-37
2022/10/27 08:31:38;;;;;;;4.95;3.13;;;14.90;88.20;;;;;;4897197;29;20088;-36
2022/10/27 08:34:04;;;;;;;3.13;2.70;;;15.00;88.20;;;;;;4896807;29;20036;-35
2022/10/27 08:36:31;;;;;;;5.53;2.78;;;15.10;88.00;;;;;;4896788;29;20100;-33
2022/10/27 08:38:57;;;;;;;4.32;2.80;;;15.20;87.90;;;;;;4896947;29;20029;-35
2022/10/27 08:41:29;;;;;;;3.58;2.65;;;15.20;87.80;;;;;;4896709;29;20028;-41
2022/10/27 08:44:17;;;;;;;5.10;2.33;;;15.30;87.70;;;;;;4896716;29;20048;-32
2022/10/27 08:46:42;;;;;;;5.22;2.88;;;15.40;87.50;;;;;;4896649;29;20032;-34
2022/10/27 08:49:37;;;;;;;5.47;2.80;;;15.50;87.40;;;;;;4896595;29;20056;-35
2022/10/27 08:52:13;;;;;;;3.60;2.97;;;15.60;87.30;;;;;;4879130;29;20048;-34
2022/10/27 08:54:42;;;;;;;4.72;2.70;;;15.60;87.20;;;;;;4896483;29;20032;-35
2022/10/27 08:57:11;;;;;;;7.03;3.25;;;15.60;87.20;;;;;;4896556;29;20496;-35
2022/10/27 08:59:37;;;;;;;4.20;2.75;;;15.70;87.20;;;;;;4896234;29;20036;-35
2022/10/27 09:02:15;;;;;;;3.75;2.33;;;15.80;87.00;;;;;;4896493;29;20108;-33
2022/10/27 09:05:11;;;;;;;4.13;2.50;;;15.80;86.90;;;;;;4896552;29;20036;-33
2022/10/27 09:08:13;;;;;;;3.58;2.10;;;15.90;86.80;;;;;;4896409;29;20075;-35
2022/10/27 09:10:53;;;;;;;3.67;2.28;;;16.00;86.60;;;;;;4896253;29;20063;-36
2022/10/27 09:13:44;;;;;;;6.10;2.50;;;16.10;86.40;;;;;;4896512;29;20029;-36
2022/10/27 09:16:15;;;;;;;6.18;2.30;;;16.20;86.30;;;;;;4896683;29;20133;-30
2022/10/27 09:18:50;;;;;;;5.07;2.25;;;16.30;86.20;;;;;;4896592;29;20029;-29
2022/10/27 09:21:21;;;;;;;4.10;2.35;;;16.30;86.10;;;;;;4896586;29;20036;-32
2022/10/27 09:23:52;;;;;;;3.47;2.40;;;16.40;86.10;;;;;;4899885;29;20400;-27
2022/10/27 09:26:24;;;;;;;3.85;2.20;;;16.40;86.00;;;;;;4899911;29;20045;-29
2022/10/27 09:28:52;;;;;;;3.65;2.40;;;16.50;85.90;;;;;;4899920;29;20055;-30
2022/10/27 09:31:39;;;;;;;2.35;2.00;;;16.50;85.80;;;;;;4899746;29;20032;-26
2022/10/27 09:34:15;;;;;;;5.20;1.95;;;16.60;85.70;;;;;;4882683;29;20121;-30
2022/10/27 09:36:41;;;;;;;1.92;1.73;;;16.80;85.50;;;;;;4899791;29;20028;-29
2022/10/27 09:39:08;;;;;;;3.53;1.90;;;16.90;85.30;;;;;;4899712;29;20163;-28
2022/10/27 09:41:34;;;;;;;2.88;1.73;;;16.90;85.10;;;;;;4899658;29;20449;-29
2022/10/27 09:44:01;;;;;;;4.30;2.15;;;17.10;84.90;;;;;;4899706;29;20536;-30
2022/10/27 09:46:28;;;;;;;3.28;1.92;;;17.10;84.70;;;;;;4899491;29;20032;-27
2022/10/27 09:49:00;;;;;;;2.55;1.50;;;17.20;84.50;;;;;;4899511;29;20032;-29
2022/10/27 09:51:53;;;;;;;2.03;1.60;;;17.40;84.20;;;;;;4899273;29;20040;-28
2022/10/27 09:54:30;;;;;;;1.48;1.38;;;17.50;84.00;;;;;;4884416;29;20045;-30
2022/10/27 09:57:05;;;;;;;3.92;1.67;;;17.60;83.80;;;;;;4882094;29;20073;-27
2022/10/27 09:59:34;;;;;;;2.67;1.50;;;17.70;83.50;;;;;;4899014;29;20401;-28
2022/10/27 10:02:00;;;;;;;2.95;1.50;;;17.80;83.20;;;;;;4899115;29;20036;-28
2022/10/27 10:04:30;;;;;;;2.00;1.20;;;17.90;83.00;;;;;;4898915;29;20025;-29
2022/10/27 10:06:58;;;;;;;1.90;1.50;;;17.90;82.80;;;;;;4882136;29;20496;-26
2022/10/27 10:09:26;;;;;;;1.85;1.35;;;18.00;82.70;;;;;;4899088;29;20031;-31
2022/10/27 10:12:18;;;;;;;3.13;1.45;;;18.00;82.20;;;;;;4899125;29;20036;-29
2022/10/27 10:14:44;;;;;;;2.33;1.40;;;18.10;82.10;;;;;;4898700;29;20021;-31
2022/10/27 10:17:21;;;;;;;2.88;1.30;;;18.20;81.90;;;;;;4881852;29;20052;-30
2022/10/27 10:19:47;;;;;;;2.75;1.10;;;18.20;81.80;;;;;;4898787;29;20052;-29
2022/10/27 10:22:25;;;;;;;2.00;1.40;;;18.20;81.60;;;;;;4898737;29;20103;-30
2022/10/27 10:24:52;;;;;;;1.20;1.05;;;18.30;81.50;;;;;;4898755;29;20051;-28
2022/10/27 10:27:30;;;;;;;2.25;1.10;;;18.40;81.20;;;;;;4898557;29;20033;-27
2022/10/27 10:30:00;;;;;;;1.25;1.08;;;18.50;80.80;;;;;;4898443;29;20440;-32
2022/10/27 10:32:32;;;;;;;2.03;0.95;;;18.60;80.70;;;;;;4897853;29;20025;-32
2022/10/27 10:34:59;;;;;;;1.63;0.97;;;18.60;80.40;;;;;;4898375;29;20052;-26
2022/10/27 10:37:42;;;;;;;1.10;1.00;;;18.80;80.10;;;;;;4898280;29;20028;-29
2022/10/27 10:40:13;;;;;;;2.03;1.10;;;18.90;79.50;;;;;;4898191;29;20025;-26
2022/10/27 10:43:00;;;;;;;2.90;1.02;;;19.00;78.90;;;;;;4898194;29;20087;-27
2022/10/27 10:45:28;;;;;;;1.63;1.20;;;19.10;78.50;;;;;;4891415;29;20032;-26
2022/10/27 10:48:00;;;;;;;2.33;1.00;;;19.20;78.50;;;;;;4898079;29;20457;-26
2022/10/27 10:50:27;;;;;;;4.13;1.00;;;19.20;78.20;;;;;;4897910;29;20521;-27
2022/10/27 10:52:56;;;;;;;1.92;1.20;;;19.30;78.00;;;;;;4897987;29;20103;-32
2022/10/27 10:55:37;;;;;;;1.90;1.30;;;19.30;77.70;;;;;;4897790;29;20082;-31
2022/10/27 10:58:02;;;;;;;2.35;1.25;;;19.40;77.10;;;;;;4897686;29;20053;-29
2022/10/27 11:00:29;;;;;;;2.25;1.02;;;19.40;77.10;;;;;;4897540;29;20500;-28
2022/10/27 11:03:04;;;;;;;1.95;1.00;;;19.50;76.90;;;;;;4897855;29;20138;-28
2022/10/27 11:05:34;;;;;;;1.35;1.10;;;19.50;75.60;;;;;;4897540;29;20051;-29
2022/10/27 11:08:03;;;;;;;1.67;1.00;;;19.50;75.60;;;;;;4897643;29;20024;-26
2022/10/27 11:10:31;;;;;;;4.10;1.00;;;19.60;75.60;;;;;;4897648;29;20032;-30
2022/10/27 11:13:18;;;;;;;1.52;0.90;;;19.60;75.60;;;;;;4897518;29;20051;-29
2022/10/27 11:15:46;;;;;;;2.10;0.90;;;19.60;75.30;;;;;;4897502;29;20070;-32
2022/10/27 11:18:24;;;;;;;1.25;0.80;;;19.60;75.00;;;;;;4897449;29;20405;-26
2022/10/27 11:21:05;;;;;;;3.03;1.38;;;19.70;75.00;;;;;;4897499;29;20388;-27
2022/10/27 11:23:39;;;;;;;3.00;0.93;;;19.70;74.60;;;;;;4897394;29;20111;-26
2022/10/27 11:26:05;;;;;;;0.80;0.80;;;19.70;74.30;;;;;;4897201;29;20028;-28
2022/10/27 11:28:47;;;;;;;1.25;1.08;;;19.70;73.70;;;;;;4897553;29;20671;-27
2022/10/27 11:31:20;;;;;;;3.05;1.10;;;19.70;73.80;;;;;;4880371;29;20037;-27
2022/10/27 11:34:16;;;;;;;4.30;1.17;;;19.80;74.20;;;;;;4897453;29;20119;-28
2022/10/27 11:36:52;;;;;;;1.75;0.90;;;19.90;74.20;;;;;;4897587;29;20021;-27
2022/10/27 11:39:28;;;;;;;0.98;0.77;;;19.90;74.00;;;;;;4897452;29;20021;-27
2022/10/27 11:42:00;;;;;;;1.75;0.85;;;19.90;73.90;;;;;;4897247;29;20021;-29
2022/10/27 11:44:52;;;;;;;1.75;0.98;;;20.00;74.00;;;;;;4896365;29;20021;-29
2022/10/27 11:47:31;;;;;;;5.47;1.08;;;19.90;73.70;;;;;;4897039;29;20116;-27
2022/10/27 11:49:59;;;;;;;1.60;1.15;;;20.00;73.90;;;;;;4897076;29;20416;-27
2022/10/27 11:52:39;;;;;;;1.73;1.00;;;20.00;74.00;;;;;;4896467;29;20036;-27
2022/10/27 11:55:08;;;;;;;1.80;0.90;;;20.00;73.90;;;;;;4896788;29;20024;-29
2022/10/27 11:57:50;;;;;;;1.30;1.00;;;20.00;73.90;;;;;;4896748;29;20025;-34
2022/10/27 12:00:21;;;;;;;1.48;0.90;;;20.10;73.60;;;;;;4896645;29;20059;-31
2022/10/27 12:03:13;;;;;;;2.20;0.85;;;20.10;73.50;;;;;;4897204;29;20477;-33
2022/10/27 12:05:47;;;;;;;1.05;0.90;;;20.10;73.10;;;;;;4896992;29;20033;-30
2022/10/27 12:08:17;;;;;;;1.60;0.85;;;20.10;73.20;;;;;;4897273;29;20077;-29
2022/10/27 12:11:00;;;;;;;1.73;1.10;;;20.20;73.10;;;;;;4897266;29;20055;-29
2022/10/27 12:13:33;;;;;;;2.22;1.00;;;20.20;73.00;;;;;;4897043;29;20067;-29
2022/10/27 12:16:01;;;;;;;1.20;1.00;;;20.10;72.90;;;;;;4897271;29;20102;-29
2022/10/27 12:18:43;;;;;;;2.95;1.13;;;20.10;73.10;;;;;;4897160;29;20481;-29
2022/10/27 12:21:24;;;;;;;1.15;0.90;;;20.10;73.10;;;;;;4897279;29;20032;-29
2022/10/27 12:23:57;;;;;;;0.93;0.80;;;20.10;73.10;;;;;;4897344;29;20029;-32
2022/10/27 12:26:36;;;;;;;3.65;1.27;;;20.20;72.90;;;;;;4896868;29;20088;-30
2022/10/27 12:29:04;;;;;;;2.65;0.93;;;20.10;72.80;;;;;;4896824;29;20028;-32
2022/10/27 12:31:32;;;;;;;2.85;1.08;;;20.10;72.90;;;;;;4897014;29;20036;-28
2022/10/27 12:34:01;;;;;;;2.55;1.20;;;20.10;73.10;;;;;;4896707;29;20024;-30
2022/10/27 12:36:44;;;;;;;4.20;1.00;;;20.20;72.90;;;;;;4896931;29;20053;-30
2022/10/27 12:39:35;;;;;;;2.05;0.80;;;20.20;72.90;;;;;;4896980;29;20536;-31
2022/10/27 12:42:09;;;;;;;8.25;1.10;;;20.20;73.00;;;;;;4896832;29;20097;-28
2022/10/27 12:45:19;;;;;;;2.92;0.90;;;20.10;72.90;;;;;;4896728;29;20038;-29
2022/10/27 12:48:01;;;;;;;2.30;0.95;;;20.10;73.00;;;;;;4886952;29;20679;-28
2022/10/27 12:50:36;;;;;;;0.95;0.80;;;20.10;73.20;;;;;;4896942;29;20358;-30
2022/10/27 12:53:29;;;;;;;1.50;0.73;;;20.10;73.30;;;;;;4896732;29;20418;-31
2022/10/27 12:56:01;;;;;;;1.25;0.80;;;20.10;73.40;;;;;;4897816;29;20342;-31
2022/10/27 12:58:29;;;;;;;1.85;0.82;;;20.00;73.40;;;;;;4900100;29;20028;-27
2022/10/27 13:01:21;;;;;;;2.00;1.00;;;20.00;73.50;;;;;;4900164;29;20600;-31
2022/10/27 13:04:13;;;;;;;2.50;1.00;;;20.00;73.70;;;;;;4900156;29;20033;-30